createdAt,value
2022-12-18T00:00:06.116Z,77.12
2022-12-18T00:02:41.786Z,76.03
2022-12-18T00:05:10.178Z,76.60
2022-12-18T00:07:38.347Z,75.74
2022-12-18T00:10:06.841Z,75.30
2022-12-18T00:12:35.001Z,75.93
2022-12-18T00:15:02.912Z,76.28
2022-12-18T00:17:30.757Z,75.97
2022-12-18T00:19:59.054Z,76.57
2022-12-18T00:22:26.970Z,76.68
2022-12-18T00:24:54.830Z,76.22
2022-12-18T00:27:23.107Z,77.09
2022-12-18T00:29:50.901Z,77.37
2022-12-18T00:32:19.253Z,76.86
2022-12-18T00:34:47.484Z,78.00
2022-12-18T00:37:19.997Z,78.14
2022-12-18T00:39:52.094Z,76.43
2022-12-18T00:42:39.480Z,76.51
2022-12-18T00:45:12.580Z,76.70
2022-12-18T00:47:41.135Z,76.62
2022-12-18T00:50:10.457Z,75.84
2022-12-18T00:52:41.518Z,76.43
2022-12-18T00:55:10.213Z,76.66
2022-12-18T00:57:38.223Z,76.63
2022-12-18T01:00:07.177Z,77.91
2022-12-18T01:02:36.401Z,77.12
2022-12-18T01:05:04.738Z,77.23
2022-12-18T01:07:32.487Z,75.35
2022-12-18T01:10:00.714Z,76.72
2022-12-18T01:12:28.539Z,76.03
2022-12-18T01:14:56.364Z,76.61
2022-12-18T01:17:24.647Z,76.79
2022-12-18T01:19:52.402Z,77.47
2022-12-18T01:22:20.461Z,76.97
2022-12-18T01:24:48.894Z,77.12
2022-12-18T01:27:16.884Z,76.88
2022-12-18T01:29:44.762Z,77.65
2022-12-18T01:32:13.017Z,76.76
2022-12-18T01:34:41.066Z,77.11
2022-12-18T01:37:08.893Z,77.30
2022-12-18T01:39:37.112Z,76.95
2022-12-18T01:42:06.833Z,77.46
2022-12-18T01:45:02.895Z,76.96
2022-12-18T01:47:44.624Z,75.79
2022-12-18T01:50:16.583Z,76.34
2022-12-18T01:52:47.634Z,75.10
2022-12-18T01:55:18.445Z,74.16
2022-12-18T01:57:48.350Z,76.04
2022-12-18T02:00:21.490Z,75.78
2022-12-18T02:02:49.897Z,75.03
2022-12-18T02:05:20.573Z,75.22
2022-12-18T02:08:12.865Z,75.42
2022-12-18T02:10:57.553Z,76.21
2022-12-18T02:13:48.081Z,75.03
2022-12-18T02:16:39.481Z,75.33
2022-12-18T02:19:22.652Z,75.78
2022-12-18T02:22:27.370Z,77.03
2022-12-18T02:25:01.262Z,76.03
2022-12-18T02:27:31.335Z,75.98
2022-12-18T02:30:01.331Z,76.70
2022-12-18T02:32:37.056Z,76.87
2022-12-18T02:35:07.758Z,76.51
2022-12-18T02:37:36.673Z,74.77
2022-12-18T02:40:05.949Z,76.12
2022-12-18T02:42:34.594Z,76.85
2022-12-18T02:45:02.996Z,75.41
2022-12-18T02:47:38.723Z,76.31
2022-12-18T02:50:20.417Z,76.93
2022-12-18T02:53:07.982Z,75.67
2022-12-18T02:55:57.438Z,74.96
2022-12-18T02:58:37.565Z,75.15
2022-12-18T03:01:17.091Z,74.06
2022-12-18T03:03:52.256Z,74.31
2022-12-18T03:06:25.896Z,73.23
2022-12-18T03:08:59.007Z,73.80
2022-12-18T03:11:49.036Z,73.92
2022-12-18T03:14:18.953Z,73.82
2022-12-18T03:16:51.350Z,73.64
2022-12-18T03:19:24.051Z,73.39
2022-12-18T03:21:57.636Z,73.68
2022-12-18T03:24:27.701Z,73.49
2022-12-18T03:27:00.725Z,73.40
2022-12-18T03:29:35.477Z,73.41
2022-12-18T03:32:10.119Z,72.29
2022-12-18T03:34:41.088Z,71.22
2022-12-18T03:37:09.921Z,73.30
2022-12-18T03:39:38.179Z,71.94
2022-12-18T03:42:14.255Z,73.32
2022-12-18T03:44:46.516Z,71.40
2022-12-18T03:47:29.499Z,71.63
2022-12-18T03:50:02.619Z,71.53
2022-12-18T03:52:36.955Z,73.10
2022-12-18T03:55:07.111Z,72.00
2022-12-18T03:57:35.404Z,71.69
2022-12-18T04:00:15.093Z,73.25
2022-12-18T04:02:53.631Z,72.91
2022-12-18T04:05:23.364Z,74.70
2022-12-18T04:07:53.338Z,74.73
2022-12-18T04:10:21.260Z,74.83
2022-12-18T04:12:49.684Z,74.37
2022-12-18T04:15:18.048Z,73.96
2022-12-18T04:17:50.377Z,73.39
2022-12-18T04:20:19.460Z,73.54
2022-12-18T04:22:47.759Z,72.73
2022-12-18T04:25:15.886Z,71.92
2022-12-18T04:27:46.112Z,71.63
2022-12-18T04:30:14.111Z,72.88
2022-12-18T04:32:46.509Z,71.66
2022-12-18T04:35:17.877Z,72.27
2022-12-18T04:37:46.009Z,72.91
2022-12-18T04:40:14.029Z,73.26
2022-12-18T04:42:42.598Z,73.40
2022-12-18T04:45:10.831Z,72.95
2022-12-18T04:47:38.662Z,73.64
2022-12-18T04:50:07.405Z,73.96
2022-12-18T04:52:35.220Z,72.21
2022-12-18T04:55:03.113Z,73.15
2022-12-18T04:57:31.351Z,72.51
2022-12-18T04:59:59.275Z,73.21
2022-12-18T05:02:27.265Z,73.57
2022-12-18T05:04:55.611Z,71.49
2022-12-18T05:07:23.491Z,72.86
2022-12-18T05:09:51.404Z,72.21
2022-12-18T05:12:19.561Z,72.30
2022-12-18T05:14:47.429Z,71.92
2022-12-18T05:17:15.196Z,72.21
2022-12-18T05:19:43.386Z,72.68
2022-12-18T05:22:11.688Z,71.54
2022-12-18T05:24:39.512Z,71.78
2022-12-18T05:27:07.816Z,72.42
2022-12-18T05:29:35.776Z,73.08
2022-12-18T05:32:03.645Z,73.13
2022-12-18T05:34:32.271Z,74.24
2022-12-18T05:37:00.115Z,73.85
2022-12-18T05:39:28.017Z,74.45
2022-12-18T05:41:56.193Z,71.94
2022-12-18T05:44:24.199Z,73.03
2022-12-18T05:46:52.122Z,73.11
2022-12-18T05:49:20.243Z,73.30
2022-12-18T05:51:48.164Z,74.04
2022-12-18T05:54:16.085Z,73.04
2022-12-18T05:56:48.479Z,73.64
2022-12-18T05:59:16.712Z,74.36
2022-12-18T06:01:44.974Z,74.78
2022-12-18T06:04:13.630Z,73.10
2022-12-18T06:06:41.750Z,73.23
2022-12-18T06:09:10.710Z,73.75
2022-12-18T06:11:39.770Z,73.42
2022-12-18T06:14:08.226Z,74.08
2022-12-18T06:16:36.098Z,72.76
2022-12-18T06:19:05.924Z,71.45
2022-12-18T06:21:34.305Z,73.09
2022-12-18T06:24:03.097Z,73.12
2022-12-18T06:26:31.531Z,72.27
2022-12-18T06:28:59.365Z,73.91
2022-12-18T06:31:27.919Z,74.76
2022-12-18T06:33:57.405Z,74.42
2022-12-18T06:36:25.342Z,75.00
2022-12-18T06:38:53.230Z,74.40
2022-12-18T06:41:22.514Z,75.23
2022-12-18T06:43:50.812Z,74.83
2022-12-18T06:46:19.008Z,74.89
2022-12-18T06:48:51.395Z,74.17
2022-12-18T06:51:21.093Z,74.63
2022-12-18T06:53:49.582Z,73.40
2022-12-18T06:56:17.734Z,73.07
2022-12-18T06:58:45.662Z,71.58
2022-12-18T07:01:14.711Z,72.95
2022-12-18T07:03:43.989Z,73.40
2022-12-18T07:06:20.845Z,75.40
2022-12-18T07:08:50.172Z,74.51
2022-12-18T07:11:18.797Z,71.82
2022-12-18T07:13:49.103Z,69.84
2022-12-18T07:16:24.605Z,69.59
2022-12-18T07:18:53.801Z,68.05
2022-12-18T07:21:23.206Z,68.02
2022-12-18T07:23:51.136Z,71.78
2022-12-18T07:26:21.249Z,73.12
2022-12-18T07:28:50.150Z,70.04
2022-12-18T07:31:23.478Z,69.13
2022-12-18T07:33:52.476Z,67.46
2022-12-18T07:36:23.770Z,67.53
2022-12-18T07:38:53.633Z,66.57
2022-12-18T07:41:21.764Z,65.07
2022-12-18T07:43:50.018Z,66.20
2022-12-18T07:46:18.877Z,64.37
2022-12-18T07:48:50.022Z,66.64
2022-12-18T07:51:19.837Z,65.03
2022-12-18T07:53:50.323Z,63.50
2022-12-18T07:56:30.579Z,60.31
2022-12-18T07:59:00.320Z,61.95
2022-12-18T08:01:28.968Z,59.89
2022-12-18T08:03:58.695Z,59.47
2022-12-18T08:06:26.921Z,57.95
2022-12-18T08:08:55.722Z,58.22
2022-12-18T08:11:25.696Z,56.43
2022-12-18T08:13:54.004Z,57.91
2022-12-18T08:16:22.560Z,58.32
2022-12-18T08:18:52.432Z,58.98
2022-12-18T08:21:29.191Z,59.18
2022-12-18T08:23:59.674Z,59.52
2022-12-18T08:26:29.683Z,62.54
2022-12-18T08:28:59.549Z,62.48
2022-12-18T08:31:29.062Z,60.04
2022-12-18T08:33:58.548Z,59.30
2022-12-18T08:36:26.474Z,59.32
2022-12-18T08:38:55.311Z,58.57
2022-12-18T08:41:23.775Z,56.68
2022-12-18T08:44:10.649Z,56.96
2022-12-18T08:46:41.305Z,53.13
2022-12-18T08:49:10.199Z,53.35
2022-12-18T08:51:39.009Z,50.88
2022-12-18T08:54:07.924Z,47.54
2022-12-18T08:56:36.165Z,45.33
2022-12-18T08:59:05.570Z,44.20
2022-12-18T09:01:33.705Z,43.00
2022-12-18T09:04:02.579Z,40.85
2022-12-18T09:06:30.828Z,41.46
2022-12-18T09:08:59.052Z,42.33
2022-12-18T09:11:29.119Z,43.07
2022-12-18T09:13:58.152Z,47.33
2022-12-18T09:16:32.270Z,46.61
2022-12-18T09:19:01.358Z,46.30
2022-12-18T09:21:36.737Z,43.65
2022-12-18T09:24:09.076Z,42.12
2022-12-18T09:26:37.801Z,43.95
2022-12-18T09:29:08.369Z,46.05
2022-12-18T09:31:36.553Z,47.25
2022-12-18T09:34:08.231Z,45.97
2022-12-18T09:36:36.516Z,48.96
2022-12-18T09:39:08.101Z,46.92
2022-12-18T09:41:54.487Z,50.13
2022-12-18T09:44:22.372Z,49.11
2022-12-18T09:47:00.254Z,46.44
2022-12-18T09:49:31.607Z,44.54
2022-12-18T09:52:36.994Z,41.48
2022-12-18T09:55:25.729Z,38.96
2022-12-18T09:57:58.458Z,36.18
2022-12-18T10:00:26.865Z,36.25
2022-12-18T10:03:01.969Z,35.62
2022-12-18T10:05:39.069Z,34.25
2022-12-18T10:08:31.366Z,33.95
2022-12-18T10:11:05.462Z,32.34
2022-12-18T10:13:42.661Z,32.20
2022-12-18T10:16:33.931Z,31.23
2022-12-18T10:19:10.756Z,33.91
2022-12-18T10:21:40.981Z,31.19
2022-12-18T10:24:33.858Z,31.25
2022-12-18T10:27:13.762Z,32.11
2022-12-18T10:29:44.301Z,34.10
2022-12-18T10:32:24.091Z,32.74
2022-12-18T10:35:00.169Z,33.22
2022-12-18T10:37:29.482Z,32.36
2022-12-18T10:40:19.866Z,32.16
2022-12-18T10:43:13.859Z,30.19
2022-12-18T10:45:43.249Z,30.54
2022-12-18T10:48:21.520Z,30.01
2022-12-18T10:53:41.366Z,31.38
2022-12-18T10:56:10.035Z,32.93
2022-12-18T10:58:40.384Z,31.51
2022-12-18T11:01:16.994Z,32.31
2022-12-18T11:03:51.130Z,30.42
2022-12-18T11:06:25.658Z,32.98
2022-12-18T11:09:21.793Z,32.51
2022-12-18T11:11:55.624Z,31.22
2022-12-18T11:14:33.494Z,29.37
2022-12-18T11:17:24.762Z,34.12
2022-12-18T11:19:58.522Z,34.69
2022-12-18T11:22:29.268Z,33.00
2022-12-18T11:28:24.071Z,32.68
2022-12-18T11:31:29.033Z,32.62
2022-12-18T11:34:29.092Z,29.89
2022-12-18T11:36:59.491Z,30.93
2022-12-18T11:39:27.900Z,31.27
2022-12-18T11:42:12.918Z,30.05
2022-12-18T11:45:04.224Z,30.83
2022-12-18T11:47:57.160Z,31.02
2022-12-18T11:50:29.478Z,32.84
2022-12-18T11:53:01.501Z,33.77
2022-12-18T11:55:47.272Z,30.94
2022-12-18T11:58:29.503Z,33.42
2022-12-18T12:01:06.734Z,33.58
2022-12-18T12:03:44.781Z,32.81
2022-12-18T12:06:16.332Z,32.76
2022-12-18T12:09:26.839Z,33.62
2022-12-18T12:12:32.572Z,33.31
2022-12-18T12:15:19.052Z,34.57
2022-12-18T12:18:00.388Z,33.57
2022-12-18T12:21:05.523Z,35.21
2022-12-18T12:23:39.392Z,36.27
2022-12-18T12:26:11.482Z,38.47
2022-12-18T12:29:01.330Z,39.16
2022-12-18T12:32:03.481Z,37.77
2022-12-18T12:34:33.749Z,37.14
2022-12-18T12:37:18.904Z,38.94
2022-12-18T12:39:48.530Z,39.03
2022-12-18T12:42:58.712Z,39.21
2022-12-18T12:45:35.778Z,40.72
2022-12-18T12:48:07.022Z,40.61
2022-12-18T12:50:36.879Z,40.99
2022-12-18T12:53:09.303Z,42.32
2022-12-18T12:55:37.418Z,41.48
2022-12-18T12:58:13.661Z,44.50
2022-12-18T13:00:48.231Z,44.91
2022-12-18T13:03:25.198Z,43.74
2022-12-18T13:06:00.797Z,44.59
2022-12-18T13:08:35.952Z,47.38
2022-12-18T13:11:25.615Z,46.17
2022-12-18T13:13:56.723Z,46.34
2022-12-18T13:16:28.567Z,47.17
2022-12-18T13:18:59.903Z,47.92
2022-12-18T13:21:32.765Z,50.10
2022-12-18T13:24:31.661Z,50.34
2022-12-18T13:26:59.601Z,51.62
2022-12-18T13:29:46.242Z,53.03
2022-12-18T13:32:23.319Z,53.02
2022-12-18T13:35:18.826Z,54.59
2022-12-18T13:37:55.544Z,55.42
2022-12-18T13:40:51.644Z,55.11
2022-12-18T13:43:22.676Z,56.08
2022-12-18T13:46:07.391Z,54.37
2022-12-18T13:48:38.240Z,54.52
2022-12-18T13:51:07.878Z,55.53
2022-12-18T13:53:52.582Z,54.85
2022-12-18T13:56:32.934Z,55.65
2022-12-18T13:59:19.194Z,56.53
2022-12-18T14:02:02.860Z,60.29
2022-12-18T14:04:36.941Z,59.91
2022-12-18T14:07:13.624Z,62.06
2022-12-18T14:10:25.888Z,61.76
2022-12-18T14:13:01.272Z,64.63
2022-12-18T14:15:45.633Z,59.28
2022-12-18T14:18:28.073Z,56.66
2022-12-18T14:20:59.110Z,58.85
2022-12-18T14:23:42.140Z,59.15
2022-12-18T14:26:30.528Z,55.93
2022-12-18T14:29:25.895Z,58.35
2022-12-18T14:32:18.161Z,58.20
2022-12-18T14:34:57.387Z,58.84
2022-12-18T14:37:27.579Z,60.61
2022-12-18T14:40:10.917Z,65.29
2022-12-18T14:42:40.127Z,65.82
2022-12-18T14:45:45.611Z,65.39
2022-12-18T14:48:40.287Z,66.32
2022-12-18T14:51:14.001Z,63.37
2022-12-18T14:53:49.124Z,64.85
2022-12-18T14:56:45.729Z,61.35
2022-12-18T14:59:26.205Z,60.79
2022-12-18T15:02:12.861Z,62.74
2022-12-18T15:04:44.887Z,65.36
2022-12-18T15:07:19.377Z,67.19
2022-12-18T15:10:12.713Z,64.89
2022-12-18T15:13:04.622Z,63.58
2022-12-18T15:15:39.006Z,63.64
2022-12-18T15:18:10.015Z,66.63
2022-12-18T15:20:42.391Z,64.94
2022-12-18T15:23:36.720Z,62.44
2022-12-18T15:26:11.604Z,63.44
2022-12-18T15:28:40.671Z,63.01
2022-12-18T15:31:15.929Z,63.84
2022-12-18T15:33:47.366Z,62.17
2022-12-18T15:36:19.314Z,61.96
2022-12-18T15:39:05.259Z,63.29
2022-12-18T15:41:36.610Z,63.26
2022-12-18T15:44:26.839Z,62.62
2022-12-18T15:46:57.882Z,67.48
2022-12-18T15:49:25.919Z,64.79
2022-12-18T15:51:56.528Z,64.68
2022-12-18T15:54:44.549Z,63.88
2022-12-18T15:57:25.225Z,65.40
2022-12-18T15:59:59.485Z,65.13
2022-12-18T16:02:29.637Z,65.31
2022-12-18T16:04:58.140Z,65.42
2022-12-18T16:07:28.142Z,66.34
2022-12-18T16:10:00.398Z,66.21
2022-12-18T16:12:30.394Z,66.94
2022-12-18T16:14:58.667Z,69.71
2022-12-18T16:17:26.752Z,70.70
2022-12-18T16:19:54.914Z,67.42
2022-12-18T16:22:24.985Z,71.01
2022-12-18T16:24:54.161Z,70.15
2022-12-18T16:27:23.899Z,69.33
2022-12-18T16:29:52.257Z,67.41
2022-12-18T16:32:22.174Z,67.61
2022-12-18T16:34:51.241Z,68.96
2022-12-18T16:37:19.566Z,68.83
2022-12-18T16:39:47.602Z,67.93
2022-12-18T16:42:20.537Z,68.82
2022-12-18T16:44:50.142Z,69.24
2022-12-18T16:47:18.415Z,68.08
2022-12-18T16:49:46.587Z,68.32
2022-12-18T16:52:15.272Z,69.76
2022-12-18T16:54:43.271Z,69.18
2022-12-18T16:57:16.698Z,68.97
2022-12-18T16:59:45.523Z,68.55
2022-12-18T17:02:22.204Z,71.56
2022-12-18T17:04:58.109Z,69.19
2022-12-18T17:07:27.151Z,68.24
2022-12-18T17:09:55.658Z,68.23
2022-12-18T17:12:24.019Z,69.48
2022-12-18T17:14:52.075Z,69.71
2022-12-18T17:17:22.253Z,69.42
2022-12-18T17:19:52.141Z,69.87
2022-12-18T17:22:21.796Z,71.51
2022-12-18T17:24:49.713Z,71.52
2022-12-18T17:27:17.703Z,70.27
2022-12-18T17:29:48.361Z,69.55
2022-12-18T17:32:18.075Z,70.13
2022-12-18T17:34:49.020Z,69.17
2022-12-18T17:37:17.037Z,69.47
2022-12-18T17:39:45.066Z,70.48
2022-12-18T17:42:15.165Z,72.55
2022-12-18T17:44:44.365Z,70.64
2022-12-18T17:47:13.600Z,71.77
2022-12-18T17:49:42.179Z,72.30
2022-12-18T17:52:10.513Z,70.85
2022-12-18T17:54:41.587Z,69.45
2022-12-18T17:57:28.898Z,69.70
2022-12-18T18:00:04.902Z,69.94
2022-12-18T18:02:37.550Z,69.46
2022-12-18T18:05:06.229Z,70.38
2022-12-18T18:07:34.249Z,70.57
2022-12-18T18:10:02.200Z,70.19
2022-12-18T18:12:50.051Z,70.51
2022-12-18T18:15:18.188Z,75.20
2022-12-18T18:17:46.528Z,72.40
2022-12-18T18:20:22.271Z,72.00
2022-12-18T18:22:51.070Z,71.60
2022-12-18T18:25:19.145Z,70.72
2022-12-18T18:27:47.818Z,70.99
2022-12-18T18:30:16.621Z,70.69
2022-12-18T18:32:44.650Z,70.06
2022-12-18T18:35:37.524Z,70.42
2022-12-18T18:38:02.717Z,69.81
2022-12-18T18:40:30.918Z,70.68
2022-12-18T18:42:58.875Z,70.29
2022-12-18T18:45:27.442Z,68.63
2022-12-18T18:47:55.425Z,70.26
2022-12-18T18:50:23.494Z,70.27
2022-12-18T18:52:53.160Z,70.65
2022-12-18T18:55:25.582Z,70.49
2022-12-18T18:57:54.240Z,76.73
2022-12-18T19:00:22.289Z,76.79
2022-12-18T19:02:52.165Z,72.13
2022-12-18T19:05:23.296Z,70.69
2022-12-18T19:07:51.208Z,70.46
2022-12-18T19:10:19.196Z,70.39
2022-12-18T19:13:05.777Z,70.82
2022-12-18T19:15:34.486Z,71.29
2022-12-18T19:18:03.139Z,71.61
2022-12-18T19:20:31.241Z,70.16
2022-12-18T19:22:59.312Z,69.95
2022-12-18T19:25:40.678Z,70.08
2022-12-18T19:28:13.231Z,70.59
2022-12-18T19:30:59.006Z,70.38
2022-12-18T19:33:43.205Z,70.51
2022-12-18T19:36:14.938Z,70.35
2022-12-18T19:38:44.976Z,71.09
2022-12-18T19:41:14.964Z,73.46
2022-12-18T19:43:43.424Z,73.33
2022-12-18T19:46:14.817Z,71.98
2022-12-18T19:48:44.620Z,72.48
2022-12-18T19:51:29.400Z,71.32
2022-12-18T19:54:07.295Z,71.28
2022-12-18T19:56:36.103Z,71.51
2022-12-18T19:59:05.385Z,77.65
2022-12-18T20:01:33.949Z,79.44
2022-12-18T20:04:03.817Z,73.10
2022-12-18T20:06:34.880Z,71.71
2022-12-18T20:09:06.922Z,72.93
2022-12-18T20:11:42.046Z,72.59
2022-12-18T20:14:12.170Z,71.09
2022-12-18T20:16:41.061Z,70.00
2022-12-18T20:19:11.576Z,69.67
2022-12-18T20:21:41.017Z,70.62
2022-12-18T20:24:09.357Z,70.81
2022-12-18T20:26:38.120Z,70.80
2022-12-18T20:29:07.100Z,70.79
2022-12-18T20:31:35.247Z,70.39
2022-12-18T20:34:04.847Z,70.68
2022-12-18T20:36:35.260Z,70.85
2022-12-18T20:39:07.520Z,75.71
2022-12-18T20:41:38.967Z,76.18
2022-12-18T20:44:09.854Z,72.25
2022-12-18T20:46:55.772Z,70.49
2022-12-18T20:49:24.681Z,70.10
2022-12-18T20:51:54.676Z,70.46
2022-12-18T20:54:23.731Z,74.74
2022-12-18T20:56:51.881Z,73.31
2022-12-18T20:59:20.720Z,71.45
2022-12-18T21:01:49.831Z,70.06
2022-12-18T21:04:21.384Z,70.11
2022-12-18T21:06:55.721Z,69.67
2022-12-18T21:09:37.709Z,70.78
2022-12-18T21:12:33.370Z,70.31
2022-12-18T21:15:07.856Z,70.05
2022-12-18T21:17:44.109Z,70.87
2022-12-18T21:20:17.588Z,70.80
2022-12-18T21:22:47.309Z,71.18
2022-12-18T21:25:15.202Z,72.12
2022-12-18T21:27:43.208Z,71.02
2022-12-18T21:30:11.956Z,71.59
2022-12-18T21:32:40.015Z,72.98
2022-12-18T21:35:08.272Z,73.10
2022-12-18T21:37:36.635Z,74.96
2022-12-18T21:40:05.131Z,76.00
2022-12-18T21:42:51.760Z,73.86
2022-12-18T21:45:20.228Z,74.28
2022-12-18T21:47:48.273Z,73.29
2022-12-18T21:50:16.179Z,76.64
2022-12-18T21:52:44.472Z,78.73
2022-12-18T21:55:12.358Z,78.24
2022-12-18T21:57:40.433Z,80.03
2022-12-18T22:00:19.169Z,79.65
2022-12-18T22:03:17.101Z,78.18
2022-12-18T22:05:36.894Z,80.16
2022-12-18T22:08:07.016Z,80.06
2022-12-18T22:10:35.519Z,79.93
2022-12-18T22:13:04.747Z,77.31
2022-12-18T22:15:33.610Z,76.87
2022-12-18T22:18:01.546Z,77.97
2022-12-18T22:20:30.203Z,79.79
2022-12-18T22:23:01.540Z,78.10
2022-12-18T22:25:35.836Z,79.16
2022-12-18T22:28:26.877Z,79.28
2022-12-18T22:30:59.073Z,78.58
2022-12-18T22:33:28.714Z,78.61
2022-12-18T22:35:56.670Z,78.81
2022-12-18T22:38:24.657Z,80.33
2022-12-18T22:40:52.948Z,79.07
2022-12-18T22:43:21.046Z,77.08
2022-12-18T22:45:49.292Z,75.76
2022-12-18T22:48:17.837Z,77.20
2022-12-18T22:50:45.744Z,75.46
2022-12-18T22:53:13.656Z,75.05
2022-12-18T22:55:41.900Z,75.49
2022-12-18T22:58:09.734Z,75.43
2022-12-18T23:00:37.681Z,77.99
2022-12-18T23:03:07.307Z,78.33
2022-12-18T23:05:35.622Z,75.49
2022-12-18T23:08:03.596Z,75.96
2022-12-18T23:10:31.871Z,76.23
2022-12-18T23:12:59.785Z,77.12
2022-12-18T23:15:28.497Z,77.99
2022-12-18T23:17:58.621Z,77.00
2022-12-18T23:20:27.664Z,76.62
2022-12-18T23:22:55.632Z,77.03
2022-12-18T23:25:23.973Z,76.92
2022-12-18T23:27:51.940Z,77.96
2022-12-18T23:30:19.836Z,80.07
2022-12-18T23:32:48.475Z,77.73
2022-12-18T23:35:17.558Z,78.40
2022-12-18T23:38:02.622Z,77.97
2022-12-18T23:40:31.005Z,77.45
2022-12-18T23:42:59.742Z,76.25
2022-12-18T23:45:27.852Z,77.17
2022-12-18T23:47:56.097Z,75.60
2022-12-18T23:50:29.105Z,77.33
2022-12-18T23:53:03.717Z,77.70
2022-12-18T23:55:38.837Z,77.54
2022-12-18T23:58:08.209Z,78.77
